createdAt,value
2019-05-13T00:01:07.422Z,33.03
2019-05-13T00:04:10.910Z,33.03
2019-05-13T00:07:14.387Z,32.98
2019-05-13T00:10:17.903Z,33.03
2019-05-13T00:13:23.562Z,33.07
2019-05-13T00:16:26.733Z,33.10
2019-05-13T00:19:30.260Z,33.03
2019-05-13T00:22:34.017Z,32.97
2019-05-13T00:25:37.560Z,33.07
2019-05-13T00:28:41.153Z,33.04
2019-05-13T00:31:45.680Z,33.08
2019-05-13T00:34:49.112Z,33.11
2019-05-13T00:37:54.286Z,33.05
2019-05-13T00:40:57.838Z,33.08
2019-05-13T00:44:03.675Z,33.04
2019-05-13T00:47:06.668Z,33.06
2019-05-13T00:50:10.163Z,32.99
2019-05-13T00:53:13.708Z,33.07
2019-05-13T00:56:18.077Z,33.01
2019-05-13T00:59:24.092Z,33.00
2019-05-13T01:02:27.115Z,33.01
2019-05-13T01:05:30.544Z,33.02
2019-05-13T01:08:34.069Z,33.04
2019-05-13T01:11:37.546Z,33.05
2019-05-13T01:14:43.111Z,33.07
2019-05-13T01:17:46.185Z,33.04
2019-05-13T01:20:49.641Z,33.01
2019-05-13T01:23:54.365Z,32.95
2019-05-13T01:26:58.927Z,33.03
2019-05-13T01:30:04.211Z,33.05
2019-05-13T01:33:07.673Z,33.04
2019-05-13T01:36:13.420Z,33.02
2019-05-13T01:39:16.625Z,33.02
2019-05-13T01:42:20.135Z,33.02
2019-05-13T01:45:24.126Z,33.02
2019-05-13T01:48:27.635Z,33.03
2019-05-13T01:51:33.487Z,33.04
2019-05-13T01:54:36.586Z,33.02
2019-05-13T01:57:40.112Z,33.06
2019-05-13T02:00:44.365Z,33.03
2019-05-13T02:03:51.197Z,33.05
2019-05-13T02:06:54.678Z,33.05
2019-05-13T02:10:00.281Z,33.03
2019-05-13T02:13:04.107Z,33.06
2019-05-13T02:16:07.552Z,33.05
2019-05-13T02:19:11.142Z,33.03
2019-05-13T02:22:14.828Z,33.06
2019-05-13T02:25:19.382Z,33.03
2019-05-13T02:28:24.647Z,33.01
2019-05-13T02:31:44.951Z,33.04
2019-05-13T02:34:34.590Z,33.06
2019-05-13T02:37:38.091Z,33.07
2019-05-13T02:40:43.165Z,33.03
2019-05-13T02:43:46.842Z,33.01
2019-05-13T02:46:52.475Z,33.01
2019-05-13T02:49:55.769Z,33.01
2019-05-13T02:53:02.147Z,33.06
2019-05-13T02:56:04.430Z,33.05
2019-05-13T02:59:07.921Z,33.04
2019-05-13T03:02:12.288Z,33.05
2019-05-13T03:05:16.144Z,33.09
2019-05-13T03:08:35.297Z,33.08
2019-05-13T03:11:25.007Z,33.04
2019-05-13T03:14:28.487Z,33.04
2019-05-13T03:17:37.860Z,33.00
2019-05-13T03:20:43.127Z,33.04
2019-05-13T03:23:46.682Z,33.05
2019-05-13T03:26:52.963Z,33.02
2019-05-13T03:29:55.417Z,33.03
2019-05-13T03:33:04.086Z,33.06
2019-05-13T03:36:07.181Z,33.02
2019-05-13T03:39:14.704Z,33.03
2019-05-13T03:42:16.388Z,32.98
2019-05-13T03:45:22.130Z,33.01
2019-05-13T03:48:25.544Z,33.04
2019-05-13T03:51:28.949Z,33.00
2019-05-13T03:54:32.988Z,32.99
2019-05-13T03:57:36.563Z,32.98
2019-05-13T04:00:42.710Z,33.00
2019-05-13T04:03:45.296Z,32.98
2019-05-13T04:06:53.044Z,33.02
2019-05-13T04:09:56.870Z,33.00
2019-05-13T04:13:03.475Z,33.03
2019-05-13T04:16:05.543Z,33.00
2019-05-13T04:19:12.097Z,33.02
2019-05-13T04:22:14.394Z,32.97
2019-05-13T04:25:17.891Z,32.98
2019-05-13T04:28:22.226Z,32.98
2019-05-13T04:31:25.815Z,32.99
2019-05-13T04:34:29.412Z,33.01
2019-05-13T04:37:33.251Z,33.00
2019-05-13T04:40:37.858Z,32.97
2019-05-13T04:43:43.691Z,32.96
2019-05-13T04:46:46.692Z,32.96
2019-05-13T04:49:53.436Z,32.89
2019-05-13T04:52:55.455Z,32.91
2019-05-13T04:55:59.039Z,32.92
2019-05-13T04:59:03.573Z,32.94
2019-05-13T05:02:39.929Z,32.84
2019-05-13T05:06:03.202Z,32.90
2019-05-13T05:13:42.865Z,32.87
2019-05-13T05:17:12.458Z,32.87
2019-05-13T05:20:33.097Z,32.90
2019-05-13T05:23:57.868Z,32.89
2019-05-13T05:27:42.528Z,32.90
2019-05-13T05:31:33.075Z,32.88
2019-05-13T05:35:12.567Z,32.86
2019-05-13T05:38:31.667Z,32.84
2019-05-13T05:41:34.368Z,32.86
2019-05-13T05:44:37.870Z,32.81
2019-05-13T05:47:41.919Z,32.76
2019-05-13T05:50:45.897Z,32.81
2019-05-13T05:53:51.606Z,32.75
2019-05-13T05:56:54.729Z,32.76
2019-05-13T06:00:02.259Z,32.77
2019-05-13T06:03:05.625Z,32.74
2019-05-13T06:06:11.737Z,32.68
2019-05-13T06:09:15.499Z,32.73
2019-05-13T06:12:21.203Z,32.69
2019-05-13T06:15:25.149Z,32.64
2019-05-13T06:18:29.678Z,32.66
2019-05-13T06:21:34.326Z,32.68
2019-05-13T06:24:38.202Z,32.69
2019-05-13T06:27:42.209Z,32.65
2019-05-13T06:30:52.149Z,32.67
2019-05-13T06:33:55.793Z,32.70
2019-05-13T06:37:01.606Z,32.70
2019-05-13T06:40:05.039Z,32.75
2019-05-13T06:43:08.535Z,32.61
2019-05-13T06:46:12.389Z,32.63
2019-05-13T06:49:17.045Z,32.60
2019-05-13T06:52:21.495Z,32.66
2019-05-13T06:55:24.990Z,32.59
2019-05-13T06:58:28.523Z,32.58
2019-05-13T07:01:32.423Z,32.64
2019-05-13T07:04:38.164Z,32.69
2019-05-13T07:07:42.685Z,32.72
2019-05-13T07:10:46.087Z,32.69
2019-05-13T07:13:51.675Z,32.76
2019-05-13T07:16:55.449Z,32.69
2019-05-13T07:19:58.942Z,32.65
2019-05-13T07:23:03.463Z,32.61
2019-05-13T07:26:06.979Z,32.69
2019-05-13T07:29:12.751Z,32.66
2019-05-13T07:32:15.624Z,32.55
2019-05-13T07:35:22.440Z,32.41
2019-05-13T07:38:24.249Z,32.35
2019-05-13T07:41:38.716Z,32.31
2019-05-13T07:44:32.906Z,32.35
2019-05-13T07:47:36.383Z,32.34
2019-05-13T07:50:53.568Z,32.34
2019-05-13T07:53:45.243Z,32.27
2019-05-13T07:56:48.741Z,32.16
2019-05-13T07:59:52.559Z,32.21
2019-05-13T08:02:57.170Z,32.25
2019-05-13T08:06:02.016Z,32.22
2019-05-13T08:09:08.781Z,32.20
2019-05-13T08:12:14.470Z,32.20
2019-05-13T08:15:17.537Z,32.13
2019-05-13T08:18:22.174Z,32.15
2019-05-13T08:21:25.769Z,32.12
2019-05-13T08:24:31.315Z,32.19
2019-05-13T08:27:35.329Z,32.12
2019-05-13T08:30:38.734Z,32.12
2019-05-13T08:33:42.506Z,32.15
2019-05-13T08:36:46.151Z,32.25
2019-05-13T08:39:52.005Z,32.18
2019-05-13T08:42:55.289Z,32.18
2019-05-13T08:45:58.779Z,32.25
2019-05-13T08:49:03.799Z,32.29
2019-05-13T08:52:07.418Z,32.36
2019-05-13T08:55:15.584Z,32.14
2019-05-13T08:58:16.375Z,32.25
2019-05-13T09:01:22.519Z,32.19
2019-05-13T09:04:25.226Z,32.35
2019-05-13T09:07:28.706Z,32.40
2019-05-13T09:10:32.126Z,32.37
2019-05-13T09:13:36.282Z,32.23
2019-05-13T09:16:41.919Z,32.23
2019-05-13T09:19:44.960Z,32.14
2019-05-13T09:22:48.463Z,32.06
2019-05-13T09:25:52.396Z,32.11
2019-05-13T09:28:55.875Z,32.08
2019-05-13T09:31:59.312Z,32.15
2019-05-13T09:35:03.227Z,32.16
2019-05-13T09:38:07.652Z,32.15
2019-05-13T09:41:12.320Z,32.04
2019-05-13T09:44:16.003Z,31.93
2019-05-13T09:47:21.658Z,31.95
2019-05-13T09:50:29.313Z,31.83
2019-05-13T09:53:32.453Z,31.77
2019-05-13T09:56:36.414Z,31.74
2019-05-13T09:59:42.322Z,31.69
2019-05-13T10:02:47.900Z,31.66
2019-05-13T10:05:51.801Z,31.73
2019-05-13T10:08:57.568Z,31.59
2019-05-13T10:12:03.321Z,31.52
2019-05-13T10:15:07.233Z,31.66
2019-05-13T10:18:12.533Z,31.63
2019-05-13T10:21:16.114Z,31.68
2019-05-13T10:24:21.677Z,31.71
2019-05-13T10:27:24.917Z,31.63
2019-05-13T10:30:28.431Z,31.60
2019-05-13T10:33:32.367Z,31.62
2019-05-13T10:36:35.834Z,31.71
2019-05-13T10:39:39.327Z,31.75
2019-05-13T10:42:43.576Z,31.89
2019-05-13T10:45:47.173Z,31.81
2019-05-13T10:48:52.694Z,31.85
2019-05-13T10:51:56.049Z,31.86
2019-05-13T10:55:02.001Z,31.90
2019-05-13T10:58:04.774Z,31.86
2019-05-13T11:01:08.332Z,31.90
2019-05-13T11:04:13.573Z,31.92
2019-05-13T11:07:16.999Z,31.91
2019-05-13T11:10:32.612Z,31.89
2019-05-13T11:13:52.338Z,31.83
2019-05-13T11:16:42.637Z,31.75
2019-05-13T11:19:46.764Z,31.67
2019-05-13T11:22:52.135Z,31.64
2019-05-13T11:25:55.774Z,31.62
2019-05-13T11:28:59.307Z,31.55
2019-05-13T11:32:03.083Z,31.51
2019-05-13T11:35:08.547Z,31.48
2019-05-13T11:38:13.096Z,31.59
2019-05-13T11:41:16.649Z,31.75
2019-05-13T11:44:23.424Z,31.73
2019-05-13T11:47:26.878Z,31.69
2019-05-13T11:50:30.391Z,31.71
2019-05-13T11:53:37.608Z,31.54
2019-05-13T11:56:48.934Z,31.68
2019-05-13T11:59:45.380Z,31.68
2019-05-13T12:02:51.984Z,31.73
2019-05-13T12:05:54.197Z,31.78
2019-05-13T12:08:57.739Z,31.77
2019-05-13T12:12:03.192Z,31.72
2019-05-13T12:15:26.518Z,31.70
2019-05-13T12:18:12.847Z,31.63
2019-05-13T12:21:16.582Z,31.67
2019-05-13T12:24:22.930Z,31.52
2019-05-13T12:27:27.532Z,31.62
2019-05-13T12:30:33.814Z,31.71
2019-05-13T12:33:36.384Z,31.81
2019-05-13T12:36:43.154Z,31.82
2019-05-13T12:39:45.278Z,31.75
2019-05-13T12:42:48.809Z,31.72
2019-05-13T12:45:53.318Z,31.68
2019-05-13T12:48:57.192Z,31.67
2019-05-13T12:52:04.389Z,31.60
2019-05-13T12:55:09.282Z,31.71
2019-05-13T12:58:12.787Z,31.66
2019-05-13T13:01:16.627Z,31.64
2019-05-13T13:04:23.885Z,31.66
2019-05-13T13:07:26.349Z,31.59
2019-05-13T13:10:33.135Z,31.44
2019-05-13T13:13:56.664Z,31.39
2019-05-13T13:16:43.132Z,31.43
2019-05-13T13:19:46.706Z,31.60
2019-05-13T13:22:51.230Z,31.64
2019-05-13T13:25:57.155Z,31.54
2019-05-13T13:29:00.081Z,31.43
2019-05-13T13:32:03.569Z,31.35
2019-05-13T13:35:07.223Z,31.38
2019-05-13T13:38:10.814Z,31.37
2019-05-13T13:41:22.387Z,31.43
2019-05-13T13:44:24.072Z,31.33
2019-05-13T13:47:24.897Z,31.23
2019-05-13T13:50:28.487Z,31.36
2019-05-13T13:53:33.512Z,31.34
2019-05-13T13:56:37.129Z,31.34
2019-05-13T14:00:14.315Z,31.32
2019-05-13T14:02:47.030Z,31.30
2019-05-13T14:05:53.708Z,31.34
2019-05-13T14:08:55.633Z,31.35
2019-05-13T14:11:59.151Z,31.38
2019-05-13T14:15:02.684Z,31.44
2019-05-13T14:18:06.124Z,31.46
2019-05-13T14:21:09.561Z,31.46
2019-05-13T14:24:13.135Z,31.45
2019-05-13T14:27:16.670Z,31.43
2019-05-13T14:30:21.737Z,31.41
2019-05-13T14:33:25.397Z,31.31
2019-05-13T14:36:29.838Z,31.30
2019-05-13T14:39:36.096Z,31.28
2019-05-13T14:42:38.662Z,31.29
2019-05-13T14:45:42.145Z,31.17
2019-05-13T14:48:45.666Z,31.18
2019-05-13T14:51:51.782Z,31.30
2019-05-13T14:54:54.873Z,31.22
2019-05-13T14:58:01.583Z,31.09
2019-05-13T15:01:15.809Z,31.02
2019-05-13T15:04:12.278Z,31.02
2019-05-13T15:07:15.872Z,31.05
2019-05-13T15:10:21.925Z,30.99
2019-05-13T15:13:25.137Z,30.97
2019-05-13T15:16:31.740Z,30.82
2019-05-13T15:19:34.999Z,31.05
2019-05-13T15:22:38.499Z,30.91
2019-05-13T15:25:42.999Z,30.99
2019-05-13T15:28:46.519Z,30.96
2019-05-13T15:31:51.438Z,30.90
2019-05-13T15:34:55.013Z,30.97
2019-05-13T15:37:58.501Z,30.86
2019-05-13T15:41:02.268Z,30.88
2019-05-13T15:44:05.662Z,30.87
2019-05-13T15:47:22.388Z,30.83
2019-05-13T15:50:15.343Z,30.69
2019-05-13T15:53:21.249Z,30.84
2019-05-13T15:56:26.220Z,30.77
2019-05-13T15:59:29.720Z,30.78
2019-05-13T16:02:33.236Z,30.73
2019-05-13T16:05:36.728Z,30.66
2019-05-13T16:08:43.220Z,30.68
2019-05-13T16:11:47.216Z,30.70
2019-05-13T16:14:50.783Z,30.59
2019-05-13T16:17:54.232Z,30.56
2019-05-13T16:20:57.710Z,30.47
2019-05-13T16:24:02.610Z,30.47
2019-05-13T16:27:06.349Z,30.47
2019-05-13T16:30:11.852Z,30.48
2019-05-13T16:33:15.572Z,30.37
2019-05-13T16:36:21.964Z,30.31
2019-05-13T16:39:24.159Z,30.26
2019-05-13T16:42:27.665Z,30.27
2019-05-13T16:45:31.711Z,30.23
2019-05-13T16:48:36.239Z,30.31
2019-05-13T16:51:39.689Z,30.34
2019-05-13T16:54:43.197Z,30.35
2019-05-13T16:57:48.734Z,30.36
2019-05-13T17:00:55.995Z,30.38
2019-05-13T17:04:01.849Z,30.41
2019-05-13T17:07:05.822Z,30.45
2019-05-13T17:10:12.482Z,30.46
2019-05-13T17:13:16.300Z,30.46
2019-05-13T17:16:21.300Z,30.44
2019-05-13T17:19:27.851Z,30.49
2019-05-13T17:22:31.688Z,30.60
2019-05-13T17:25:35.297Z,30.58
2019-05-13T17:28:41.477Z,30.65
2019-05-13T17:31:45.269Z,30.67
2019-05-13T17:34:51.134Z,30.67
2019-05-13T17:37:54.060Z,30.75
2019-05-13T17:40:57.511Z,30.77
2019-05-13T17:44:02.566Z,30.73
2019-05-13T17:47:13.149Z,30.79
2019-05-13T17:50:17.743Z,30.88
2019-05-13T17:53:21.731Z,30.74
2019-05-13T17:56:26.174Z,30.83
2019-05-13T17:59:31.492Z,30.79
2019-05-13T18:02:35.855Z,30.86
2019-05-13T18:05:39.349Z,30.86
2019-05-13T18:08:42.844Z,30.86
2019-05-13T18:11:46.357Z,30.83
2019-05-13T18:14:51.675Z,30.81
2019-05-13T18:17:55.372Z,30.89
2019-05-13T18:20:58.809Z,30.86
2019-05-13T18:24:02.312Z,30.95
2019-05-13T18:27:05.735Z,30.91
2019-05-13T18:30:11.431Z,31.00
2019-05-13T18:33:15.156Z,31.01
2019-05-13T18:36:18.671Z,31.03
2019-05-13T18:39:22.194Z,31.00
2019-05-13T18:42:26.679Z,31.01
2019-05-13T18:45:30.188Z,31.00
2019-05-13T18:48:33.604Z,31.08
2019-05-13T18:51:37.078Z,31.00
2019-05-13T18:54:42.122Z,31.07
2019-05-13T18:57:45.870Z,31.03
2019-05-13T19:00:49.340Z,31.08
2019-05-13T19:03:52.843Z,30.95
2019-05-13T19:06:57.349Z,31.02
2019-05-13T19:10:02.541Z,31.07
2019-05-13T19:13:07.218Z,31.05
2019-05-13T19:16:12.816Z,31.07
2019-05-13T19:19:19.725Z,31.05
2019-05-13T19:22:21.616Z,31.02
2019-05-13T19:25:25.273Z,31.04
2019-05-13T19:28:28.738Z,31.08
2019-05-13T19:31:32.509Z,31.07
2019-05-13T19:34:36.912Z,31.06
2019-05-13T19:37:42.561Z,31.09
2019-05-13T19:40:46.323Z,31.08
2019-05-13T19:43:50.996Z,31.05
2019-05-13T19:46:54.734Z,31.07
2019-05-13T19:49:58.265Z,31.06
2019-05-13T19:53:03.704Z,31.03
2019-05-13T19:56:07.301Z,31.06
2019-05-13T19:59:12.410Z,31.08
2019-05-13T20:02:16.149Z,31.11
2019-05-13T20:05:21.132Z,31.09
2019-05-13T20:08:24.934Z,31.08
2019-05-13T20:11:28.412Z,31.08
2019-05-13T20:14:31.821Z,31.12
2019-05-13T20:17:35.236Z,31.07
2019-05-13T20:20:38.681Z,30.99
2019-05-13T20:23:43.910Z,31.07
2019-05-13T20:26:52.215Z,31.06
2019-05-13T20:29:56.873Z,31.10
2019-05-13T20:33:02.310Z,31.06
2019-05-13T20:36:06.971Z,31.13
2019-05-13T20:39:11.561Z,31.12
2019-05-13T20:42:16.197Z,31.20
2019-05-13T20:45:22.235Z,31.13
2019-05-13T20:48:25.067Z,31.12
2019-05-13T20:51:28.546Z,31.19
2019-05-13T20:54:33.071Z,31.12
2019-05-13T20:57:36.480Z,31.16
2019-05-13T21:00:42.189Z,31.16
2019-05-13T21:03:45.813Z,31.11
2019-05-13T21:06:51.646Z,31.13
2019-05-13T21:09:55.263Z,31.16
2019-05-13T21:12:58.797Z,31.12
2019-05-13T21:16:02.561Z,31.11
2019-05-13T21:19:06.190Z,31.13
2019-05-13T21:22:11.797Z,31.09
2019-05-13T21:25:15.416Z,31.09
2019-05-13T21:28:18.836Z,31.09
2019-05-13T21:31:22.441Z,31.09
2019-05-13T21:34:26.963Z,31.10
2019-05-13T21:37:30.464Z,31.11
2019-05-13T21:40:34.992Z,31.11
2019-05-13T21:43:38.627Z,31.17
2019-05-13T21:46:42.136Z,31.06
2019-05-13T21:49:45.817Z,31.05
2019-05-13T21:52:51.469Z,31.11
2019-05-13T21:55:54.733Z,31.05
2019-05-13T21:59:01.422Z,31.09
2019-05-13T22:02:05.717Z,31.17
2019-05-13T22:05:11.477Z,30.98
2019-05-13T22:08:14.692Z,31.06
2019-05-13T22:11:18.256Z,31.06
2019-05-13T22:14:21.697Z,31.04
2019-05-13T22:17:25.198Z,31.03
2019-05-13T22:20:28.608Z,31.05
2019-05-13T22:23:33.348Z,31.13
2019-05-13T22:26:36.828Z,31.11
2019-05-13T22:29:41.440Z,31.04
2019-05-13T22:32:46.185Z,31.09
2019-05-13T22:35:52.119Z,31.10
2019-05-13T22:38:54.821Z,31.10
2019-05-13T22:42:01.077Z,31.06
2019-05-13T22:45:06.887Z,31.05
2019-05-13T22:48:12.129Z,31.11
2019-05-13T22:51:15.550Z,31.06
2019-05-13T22:54:21.077Z,31.10
2019-05-13T22:57:24.112Z,31.08
2019-05-13T23:00:27.727Z,31.09
2019-05-13T23:03:32.354Z,31.07
2019-05-13T23:06:36.134Z,31.10
2019-05-13T23:09:41.615Z,31.15
2019-05-13T23:12:44.792Z,31.11
2019-05-13T23:15:48.307Z,31.11
2019-05-13T23:18:51.806Z,31.11
2019-05-13T23:21:55.342Z,31.12
2019-05-13T23:24:58.798Z,31.15
2019-05-13T23:28:02.304Z,31.13
2019-05-13T23:31:05.806Z,31.11
2019-05-13T23:34:12.049Z,31.15
2019-05-13T23:37:15.576Z,31.11
2019-05-13T23:40:19.997Z,31.15
2019-05-13T23:43:23.426Z,31.17
2019-05-13T23:46:26.895Z,31.16
2019-05-13T23:49:31.780Z,31.15
2019-05-13T23:52:35.467Z,31.13
2019-05-13T23:55:41.283Z,31.16
2019-05-13T23:58:44.287Z,31.12
